Papaikou, Hawaii
Current Conditions -  °F | °C
As of 1:53 AM on Tuesday 21 Oct 2014 (Local Time) from PHTO Reporting Station
Few Clouds Few Clouds  
Wind Chill: 69°   Ceiling: Unl
Heat Index: 69°   Visibility: 10mi
Dew Point: 59°   Wind: 8mph
Humidity: 70%   Direction: 240°WSW
Pressure: 30.01"   Gusts: NA
Location:  19.78°N, 155.09°W
Report Text: PHTO 211153Z 24007KT 10SM FEW025 21/15 A3001 RMK AO2 SLP160 T02060150 10250 20206 58012
Loading
Personal Weather Stations






























Interactive Weather Map
Tropical Storm Tracking
New forecast layout! Learn more

10-Day Weather Forecast

Advertisements
Track Severe Weather on mobile